TimePDT,TemperatureF,Dew PointF,Humidity,Sea Level PressureIn,VisibilityMPH,Wind Direction,Wind SpeedMPH,Gust SpeedMPH,PrecipitationIn,Events,Conditions,WindDirDegrees,DateUTC
12:53 AM,50.0,50.0,100,30.05,10.0,Calm,Calm,-,N/A,,Clear,0,2012-11-02 07:53:00
1:53 AM,48.9,48.0,97,30.06,10.0,Calm,Calm,-,N/A,,Clear,0,2012-11-02 08:53:00
2:53 AM,48.0,46.9,96,30.05,10.0,Calm,Calm,-,N/A,,Clear,0,2012-11-02 09:53:00
3:53 AM,46.9,46.9,100,30.05,10.0,Calm,Calm,-,N/A,,Clear,0,2012-11-02 10:53:00
4:53 AM,48.0,46.9,96,30.05,10.0,Calm,Calm,-,N/A,,Clear,0,2012-11-02 11:53:00
5:53 AM,46.0,45.0,96,30.06,10.0,Calm,Calm,-,0.01,,Clear,0,2012-11-02 12:53:00
6:53 AM,46.0,46.0,100,30.06,10.0,Calm,Calm,-,N/A,,Clear,0,2012-11-02 13:53:00
7:40 AM,46.4,46.4,100,30.06,2.5,WNW,3.5,-,N/A,,Clear,290,2012-11-02 14:40:00
7:53 AM,46.0,46.0,100,30.07,4.0,Calm,Calm,-,N/A,,Clear,0,2012-11-02 14:53:00
8:53 AM,55.0,54.0,96,30.08,10.0,Calm,Calm,-,N/A,,Clear,0,2012-11-02 15:53:00
9:53 AM,59.0,54.0,83,30.09,10.0,Calm,Calm,-,N/A,,Clear,0,2012-11-02 16:53:00
10:53 AM,63.0,53.1,70,30.09,10.0,ENE,3.5,-,N/A,,Clear,60,2012-11-02 17:53:00
11:53 AM,64.0,53.1,67,30.08,10.0,ENE,4.6,-,N/A,,Clear,70,2012-11-02 18:53:00
12:53 PM,66.9,53.1,61,30.06,10.0,Calm,Calm,-,N/A,,Clear,0,2012-11-02 19:53:00
1:53 PM,66.9,53.1,61,30.05,10.0,Calm,Calm,-,N/A,,Clear,0,2012-11-02 20:53:00
2:53 PM,69.1,52.0,54,30.03,10.0,Calm,Calm,-,N/A,,Clear,0,2012-11-02 21:53:00
3:53 PM,68.0,53.1,59,30.04,10.0,South,5.8,-,N/A,,Clear,180,2012-11-02 22:53:00
4:53 PM,66.0,53.1,63,30.03,10.0,South,4.6,-,N/A,,Clear,190,2012-11-02 23:53:00
5:53 PM,64.9,52.0,63,30.03,10.0,South,3.5,-,N/A,,Clear,180,2012-11-03 00:53:00
6:53 PM,55.9,52.0,87,30.04,10.0,Calm,Calm,-,N/A,,Clear,0,2012-11-03 01:53:00
7:53 PM,57.0,53.1,87,30.04,10.0,Calm,Calm,-,N/A,,Clear,0,2012-11-03 02:53:00
8:53 PM,55.9,53.1,90,30.05,10.0,Calm,Calm,-,N/A,,Clear,0,2012-11-03 03:53:00
9:53 PM,55.9,54.0,93,30.06,10.0,Calm,Calm,-,N/A,,Clear,0,2012-11-03 04:53:00
10:53 PM,57.0,53.1,87,30.07,10.0,NNW,3.5,-,N/A,,Clear,340,2012-11-03 05:53:00
11:53 PM,54.0,51.1,90,30.07,10.0,Calm,Calm,-,N/A,,Clear,0,2012-11-03 06:53:00